Terminal Aerodrome Forecast
Issued by NWS Cleveland, OH

Home | Current Version | Previous Version | Graphics & Text | Print | Product List | Glossary On
Versions: 1 2 3 4 5 6 7 8 9 10 11 12 13 14 15 16 17
000
FTUS41 KCLE 241400 AAB
TAFCLE
TAF AMD
KCLE 241456Z 2415/2518 18010KT P6SM BKN015 OVC022
      TEMPO 2415/2419 BKN008 OVC020
     FM241900 17010G20KT P6SM OVC014
     FM242300 18018G30KT 4SM -SHRA OVC008
     FM250030 22025G45KT P6SM OVC020
     FM250900 24020G32KT 3SM -SHSN OVC018
     FM251200 24020G30KT P6SM OVC025=

USA.gov is the U.S. government's official web portal to all federal, state and local government web resources and services.